Time;durP1;ratioP1;P1;durP2;ratioP2;P2;SDS_P1;SDS_P2;PMS_P1;PMS_P2;Temp;Humidity;BMP_temperature;BMP_pressure;BME280_temperature;BME280_humidity;BME280_pressure;Samples;Min_cycle;Max_cycle;Signal;HPM_P1;HPM_P2
2024/04/16 00:01:23;;;;;;;;;;;8.90;75.00;;;;;;5462823;26;19936;-61
2024/04/16 00:03:49;;;;;;;;;;;8.90;75.00;;;;;;5456628;26;19929;-62
2024/04/16 00:06:20;;;;;;;;;;;9.00;75.10;;;;;;5463049;26;19935;-62
2024/04/16 00:08:48;;;;;;;;;;;9.00;75.20;;;;;;5460771;26;20396;-61
2024/04/16 00:11:16;;;;;;;;;;;8.90;75.40;;;;;;5456803;26;20094;-61
2024/04/16 00:13:42;;;;;;;;;;;8.90;75.30;;;;;;5462180;26;21054;-62
2024/04/16 00:16:24;;;;;;;;;;;8.90;75.20;;;;;;5460828;26;19935;-62
2024/04/16 00:18:50;;;;;;;;;;;9.00;75.10;;;;;;5465782;26;19935;-62
2024/04/16 00:21:22;;;;;;;;;;;8.90;75.10;;;;;;5468348;26;19934;-61
2024/04/16 00:23:48;;;;;;;;;;;8.90;75.30;;;;;;5464289;26;19988;-62
2024/04/16 00:26:17;;;;;;;;;;;8.90;75.30;;;;;;5457769;26;20019;-62
2024/04/16 00:28:45;;;;;;;;;;;8.90;75.20;;;;;;5462844;26;19936;-62
2024/04/16 00:31:14;;;;;;;;;;;8.90;75.20;;;;;;5461008;26;19935;-65
2024/04/16 00:33:40;;;;;;;;;;;8.90;75.30;;;;;;5463581;26;19936;-65
2024/04/16 00:36:09;;;;;;;;;;;8.80;75.20;;;;;;5464261;26;19928;-66
2024/04/16 00:38:38;;;;;;;;;;;8.70;75.00;;;;;;5463729;26;19928;-65
2024/04/16 00:41:06;;;;;;;;;;;8.70;75.40;;;;;;5459741;26;20025;-65
2024/04/16 00:43:32;;;;;;;;;;;8.70;75.30;;;;;;5461198;26;20018;-67
2024/04/16 00:46:07;;;;;;;;;;;8.60;75.20;;;;;;5462222;26;19928;-66
2024/04/16 00:48:33;;;;;;;;;;;8.70;75.30;;;;;;5460751;26;19940;-66
2024/04/16 00:51:02;;;;;;;;;;;8.70;75.20;;;;;;5461761;26;20051;-65
2024/04/16 00:53:28;;;;;;;;;;;8.70;75.20;;;;;;5458972;26;21421;-65
2024/04/16 00:56:00;;;;;;;;;;;8.70;75.20;;;;;;5462086;26;20011;-65
2024/04/16 00:58:27;;;;;;;;;;;8.60;75.30;;;;;;5457632;26;19936;-67
2024/04/16 01:00:56;;;;;;;;;;;8.60;75.40;;;;;;5461379;26;19928;-65
2024/04/16 01:03:22;;;;;;;;;;;8.60;75.40;;;;;;5459802;26;19928;-65
2024/04/16 01:05:51;;;;;;;;;;;8.60;75.20;;;;;;5461533;26;19932;-66
2024/04/16 01:08:17;;;;;;;;;;;8.60;75.40;;;;;;5464256;26;19932;-66
2024/04/16 01:10:46;;;;;;;;;;;8.60;75.50;;;;;;5464541;26;19928;-66
2024/04/16 01:13:15;;;;;;;;;;;8.60;75.30;;;;;;5459756;26;19929;-64
2024/04/16 01:15:44;;;;;;;;;;;8.60;75.40;;;;;;5462902;26;20363;-66
2024/04/16 01:18:10;;;;;;;;;;;8.60;75.50;;;;;;5457470;26;19995;-66
2024/04/16 01:20:39;;;;;;;;;;;8.60;75.50;;;;;;5462441;26;19968;-64
2024/04/16 01:23:08;;;;;;;;;;;8.60;75.60;;;;;;5463201;26;19929;-66
2024/04/16 01:25:37;;;;;;;;;;;8.70;75.50;;;;;;5462754;26;19944;-66
2024/04/16 01:28:03;;;;;;;;;;;8.70;75.60;;;;;;5463412;26;19960;-65
2024/04/16 01:30:32;;;;;;;;;;;8.70;76.00;;;;;;5453756;26;19939;-66
2024/04/16 01:32:58;;;;;;;;;;;8.60;76.20;;;;;;5459603;26;19928;-67
2024/04/16 01:35:27;;;;;;;;;;;8.60;76.80;;;;;;5462116;26;19997;-67
2024/04/16 01:37:53;;;;;;;;;;;8.60;77.00;;;;;;5447585;26;19936;-66
2024/04/16 01:40:24;;;;;;;;;;;8.70;76.90;;;;;;5458360;26;20323;-65
2024/04/16 01:42:50;;;;;;;;;;;8.60;76.80;;;;;;5459681;26;19939;-66
2024/04/16 01:45:19;;;;;;;;;;;8.60;76.60;;;;;;5456532;26;19934;-66
2024/04/16 01:47:45;;;;;;;;;;;8.60;76.90;;;;;;5459537;26;20079;-64
2024/04/16 01:50:14;;;;;;;;;;;8.60;77.00;;;;;;5460283;26;19995;-66
2024/04/16 01:52:40;;;;;;;;;;;8.60;76.90;;;;;;5458613;26;20022;-66
2024/04/16 01:55:09;;;;;;;;;;;8.60;77.10;;;;;;5456204;26;20388;-66
2024/04/16 01:57:39;;;;;;;;;;;8.50;77.10;;;;;;5454366;26;19928;-67
2024/04/16 02:00:18;;;;;;;;;;;8.50;77.40;;;;;;5457480;26;19928;-67
2024/04/16 02:02:44;;;;;;;;;;;8.60;77.40;;;;;;5454677;26;19936;-66
2024/04/16 02:05:13;;;;;;;;;;;8.60;77.40;;;;;;5456684;26;19929;-66
2024/04/16 02:07:39;;;;;;;;;;;8.50;77.40;;;;;;5460377;26;19944;-67
2024/04/16 02:10:11;;;;;;;;;;;8.50;77.70;;;;;;5449953;26;19933;-66
2024/04/16 02:12:40;;;;;;;;;;;8.50;77.70;;;;;;5455252;26;19947;-66
2024/04/16 02:15:09;;;;;;;;;;;8.50;77.70;;;;;;5455024;26;20043;-68
2024/04/16 02:17:37;;;;;;;;;;;8.40;77.70;;;;;;5453408;26;19935;-67
2024/04/16 02:20:06;;;;;;;;;;;8.40;77.70;;;;;;5457873;26;19928;-66
2024/04/16 02:22:32;;;;;;;;;;;8.50;78.00;;;;;;5460012;26;19989;-66
2024/04/16 02:25:01;;;;;;;;;;;8.40;78.00;;;;;;5441229;26;19933;-67
2024/04/16 02:27:27;;;;;;;;;;;8.50;78.00;;;;;;5457435;26;19940;-66
2024/04/16 02:29:59;;;;;;;;;;;8.50;78.10;;;;;;5459116;26;19941;-66
2024/04/16 02:32:28;;;;;;;;;;;8.50;78.00;;;;;;5453406;26;19932;-67
2024/04/16 02:34:56;;;;;;;;;;;8.60;78.00;;;;;;5456020;26;19934;-66
2024/04/16 02:37:23;;;;;;;;;;;8.50;78.00;;;;;;5458998;26;19935;-65
2024/04/16 02:39:51;;;;;;;;;;;8.50;77.90;;;;;;5453020;26;19929;-65
2024/04/16 02:42:17;;;;;;;;;;;8.50;77.90;;;;;;5448767;26;19936;-65
2024/04/16 02:44:46;;;;;;;;;;;8.40;77.80;;;;;;5456093;26;20255;-65
2024/04/16 02:47:15;;;;;;;;;;;8.40;77.60;;;;;;5464236;26;19974;-65
2024/04/16 02:49:43;;;;;;;;;;;8.40;77.60;;;;;;5459265;26;19997;-66
2024/04/16 02:52:09;;;;;;;;;;;8.40;77.50;;;;;;5459632;26;19939;-62
2024/04/16 02:54:38;;;;;;;;;;;8.40;77.40;;;;;;5454913;26;19975;-62
2024/04/16 02:57:04;;;;;;;;;;;8.40;77.20;;;;;;5461044;26;19935;-62
2024/04/16 02:59:33;;;;;;;;;;;8.30;77.10;;;;;;5460993;26;19928;-63
2024/04/16 03:01:59;;;;;;;;;;;8.30;76.80;;;;;;5455343;26;20621;-62
2024/04/16 03:04:30;;;;;;;;;;;8.20;76.70;;;;;;5463976;26;20000;-63
2024/04/16 03:06:56;;;;;;;;;;;8.20;76.70;;;;;;5460907;26;19928;-62
2024/04/16 03:09:25;;;;;;;;;;;8.20;76.40;;;;;;5443846;26;19928;-60
2024/04/16 03:11:51;;;;;;;;;;;8.20;76.20;;;;;;5454262;26;20137;-63
2024/04/16 03:14:20;;;;;;;;;;;8.20;76.10;;;;;;5450794;26;19936;-62
2024/04/16 03:16:46;;;;;;;;;;;8.10;75.90;;;;;;5450976;26;19957;-63
2024/04/16 03:19:15;;;;;;;;;;;8.10;75.80;;;;;;5451565;26;19936;-61
2024/04/16 03:21:43;;;;;;;;;;;8.10;75.80;;;;;;5462719;26;19928;-62
2024/04/16 03:24:12;;;;;;;;;;;8.10;75.80;;;;;;5452843;26;19928;-62
2024/04/16 03:26:38;;;;;;;;;;;8.10;75.70;;;;;;5453181;26;21090;-62
2024/04/16 03:29:07;;;;;;;;;;;8.00;75.80;;;;;;5452257;26;19939;-62
2024/04/16 03:31:33;;;;;;;;;;;8.00;75.60;;;;;;5448420;26;19928;-61
2024/04/16 03:34:01;;;;;;;;;;;7.90;75.80;;;;;;5451100;26;19935;-62
2024/04/16 03:36:27;;;;;;;;;;;7.90;76.00;;;;;;5442305;26;19951;-62
2024/04/16 03:38:59;;;;;;;;;;;7.90;76.10;;;;;;5460074;26;20026;-62
2024/04/16 03:41:28;;;;;;;;;;;7.90;76.10;;;;;;5458115;26;20391;-64
2024/04/16 03:43:54;;;;;;;;;;;7.90;76.30;;;;;;5458017;26;19928;-62
2024/04/16 03:46:22;;;;;;;;;;;7.90;76.10;;;;;;5448061;26;20038;-62
2024/04/16 03:48:48;;;;;;;;;;;7.80;76.30;;;;;;5451865;26;19940;-63
2024/04/16 03:51:17;;;;;;;;;;;7.80;76.30;;;;;;5448623;26;19935;-62
2024/04/16 03:53:43;;;;;;;;;;;7.80;76.10;;;;;;5449584;26;19942;-62
2024/04/16 03:56:15;;;;;;;;;;;7.80;76.00;;;;;;5464551;26;19928;-62
2024/04/16 03:58:53;;;;;;;;;;;7.80;75.90;;;;;;5457363;26;19944;-62
2024/04/16 04:01:23;;;;;;;;;;;7.70;75.80;;;;;;5458620;26;19929;-62
2024/04/16 04:03:49;;;;;;;;;;;7.70;75.80;;;;;;5465307;26;19936;-61
2024/04/16 04:06:17;;;;;;;;;;;7.70;75.50;;;;;;5453852;26;19928;-61
2024/04/16 04:08:43;;;;;;;;;;;7.70;75.40;;;;;;5457708;26;19929;-62
2024/04/16 04:11:15;;;;;;;;;;;7.60;75.20;;;;;;5457514;26;19929;-63
2024/04/16 04:13:41;;;;;;;;;;;7.60;75.10;;;;;;5442694;26;19928;-63
2024/04/16 04:16:12;;;;;;;;;;;7.50;75.30;;;;;;5450491;26;19960;-62
2024/04/16 04:18:38;;;;;;;;;;;7.50;75.30;;;;;;5449009;26;19992;-61
2024/04/16 04:21:07;;;;;;;;;;;7.50;75.20;;;;;;5461804;26;19940;-61
2024/04/16 04:23:33;;;;;;;;;;;7.60;75.10;;;;;;5455561;26;19936;-62
2024/04/16 04:26:02;;;;;;;;;;;7.40;75.50;;;;;;5450539;26;19973;-60
2024/04/16 04:28:33;;;;;;;;;;;7.50;75.70;;;;;;5453686;26;19939;-63
2024/04/16 04:31:12;;;;;;;;;;;7.50;75.70;;;;;;5443879;26;20330;-62
2024/04/16 04:33:41;;;;;;;;;;;7.50;75.80;;;;;;5458997;26;19936;-62
2024/04/16 04:36:08;;;;;;;;;;;7.50;75.60;;;;;;5461289;26;19934;-60
2024/04/16 04:38:36;;;;;;;;;;;7.50;75.50;;;;;;5450989;26;19936;-61
2024/04/16 04:41:03;;;;;;;;;;;7.40;75.60;;;;;;5455857;26;19928;-62
2024/04/16 04:43:34;;;;;;;;;;;7.40;75.70;;;;;;5458228;26;20017;-61
2024/04/16 04:46:00;;;;;;;;;;;7.40;75.80;;;;;;5443478;26;19928;-62
2024/04/16 04:48:29;;;;;;;;;;;7.40;75.80;;;;;;5452010;26;19928;-62
2024/04/16 04:50:55;;;;;;;;;;;7.40;75.70;;;;;;5460822;26;20379;-61
2024/04/16 04:53:24;;;;;;;;;;;7.40;75.80;;;;;;5450475;26;19929;-62
2024/04/16 04:55:50;;;;;;;;;;;7.30;75.60;;;;;;5457569;26;19935;-62
2024/04/16 04:58:19;;;;;;;;;;;7.20;75.80;;;;;;5460280;26;19997;-62
2024/04/16 05:00:48;;;;;;;;;;;7.20;75.90;;;;;;5453242;26;19947;-62
2024/04/16 05:03:17;;;;;;;;;;;7.20;76.00;;;;;;5449384;26;20701;-61
2024/04/16 05:05:45;;;;;;;;;;;7.20;76.10;;;;;;5452128;26;19934;-61
2024/04/16 05:08:14;;;;;;;;;;;7.20;75.90;;;;;;5464564;26;20484;-60
2024/04/16 05:10:40;;;;;;;;;;;7.30;76.10;;;;;;5462543;26;19935;-61
2024/04/16 05:13:08;;;;;;;;;;;7.30;76.00;;;;;;5461148;26;19936;-65
2024/04/16 05:15:35;;;;;;;;;;;7.30;76.00;;;;;;5455907;26;19937;-66
2024/04/16 05:18:06;;;;;;;;;;;7.30;76.10;;;;;;5458525;26;19931;-64
2024/04/16 05:20:32;;;;;;;;;;;7.20;76.40;;;;;;5453601;26;19936;-65
2024/04/16 05:23:01;;;;;;;;;;;7.20;76.30;;;;;;5459970;26;19928;-65
2024/04/16 05:25:28;;;;;;;;;;;7.30;76.20;;;;;;5453298;26;19940;-64
2024/04/16 05:27:56;;;;;;;;;;;7.30;76.30;;;;;;5451951;26;19928;-64
2024/04/16 05:30:22;;;;;;;;;;;7.30;76.50;;;;;;5456973;26;19936;-64
2024/04/16 05:32:53;;;;;;;;;;;7.30;76.40;;;;;;5449318;26;20265;-63
2024/04/16 05:35:21;;;;;;;;;;;7.40;76.20;;;;;;5454760;26;20351;-65
2024/04/16 05:37:50;;;;;;;;;;;7.40;76.20;;;;;;5449715;26;19937;-65
2024/04/16 05:40:17;;;;;;;;;;;7.40;76.30;;;;;;5457500;26;19935;-66
2024/04/16 05:42:46;;;;;;;;;;;7.60;75.90;;;;;;5450982;26;19928;-65
2024/04/16 05:45:13;;;;;;;;;;;7.60;76.00;;;;;;5446077;26;19935;-65
2024/04/16 05:47:41;;;;;;;;;;;7.70;75.70;;;;;;5450080;26;19929;-65
2024/04/16 05:50:08;;;;;;;;;;;7.70;75.60;;;;;;5452224;26;20422;-65
2024/04/16 05:52:39;;;;;;;;;;;7.70;75.60;;;;;;5452551;26;19928;-64
2024/04/16 05:55:05;;;;;;;;;;;7.80;75.50;;;;;;5453031;26;19935;-65
2024/04/16 05:57:35;;;;;;;;;;;7.80;75.50;;;;;;5450454;26;19927;-65
2024/04/16 06:00:01;;;;;;;;;;;7.80;75.50;;;;;;5451892;26;19937;-65
2024/04/16 06:02:33;;;;;;;;;;;7.80;75.40;;;;;;5451268;26;19973;-65
2024/04/16 06:04:59;;;;;;;;;;;7.80;75.50;;;;;;5448976;26;19928;-65
2024/04/16 06:07:28;;;;;;;;;;;7.80;75.40;;;;;;5453800;26;19996;-66
2024/04/16 06:09:57;;;;;;;;;;;7.90;75.20;;;;;;5455674;26;19929;-64
2024/04/16 06:12:26;;;;;;;;;;;7.90;75.00;;;;;;5452338;26;19928;-66
2024/04/16 06:14:52;;;;;;;;;;;8.00;74.80;;;;;;5459942;26;19928;-65
2024/04/16 06:17:20;;;;;;;;;;;8.10;74.60;;;;;;5451463;26;19929;-65
2024/04/16 06:19:47;;;;;;;;;;;8.20;74.40;;;;;;5456218;26;19928;-65
2024/04/16 06:22:15;;;;;;;;;;;8.20;74.20;;;;;;5462505;26;19928;-64
2024/04/16 06:24:41;;;;;;;;;;;8.20;74.00;;;;;;5449781;26;19985;-64
2024/04/16 06:27:13;;;;;;;;;;;8.30;73.90;;;;;;5458781;26;19928;-64
2024/04/16 06:29:39;;;;;;;;;;;8.40;73.90;;;;;;5449800;26;19998;-64
2024/04/16 06:32:08;;;;;;;;;;;8.40;73.80;;;;;;5456460;26;19928;-63
2024/04/16 06:34:34;;;;;;;;;;;8.40;73.80;;;;;;5448884;26;19943;-64
2024/04/16 06:37:03;;;;;;;;;;;8.40;73.50;;;;;;5456325;26;19994;-64
2024/04/16 06:39:29;;;;;;;;;;;8.40;73.20;;;;;;5456343;26;20356;-64
2024/04/16 06:42:00;;;;;;;;;;;8.50;72.80;;;;;;5463810;26;19961;-63
2024/04/16 06:55:19;;;;;;;;;;;8.60;72.60;;;;;;5449161;26;19936;-64
2024/04/16 06:57:45;;;;;;;;;;;8.50;72.60;;;;;;5448474;26;19941;-64
2024/04/16 07:00:14;;;;;;;;;;;8.40;72.80;;;;;;5445610;26;19936;-64
2024/04/16 07:02:41;;;;;;;;;;;8.40;73.20;;;;;;5447856;26;20001;-64
2024/04/16 07:05:09;;;;;;;;;;;8.40;73.60;;;;;;5443454;26;20504;-62
2024/04/16 07:07:36;;;;;;;;;;;8.40;73.90;;;;;;5435118;26;19933;-64
2024/04/16 07:10:05;;;;;;;;;;;8.50;73.80;;;;;;5440757;26;19936;-63
2024/04/16 07:12:34;;;;;;;;;;;8.40;73.80;;;;;;5445876;26;19929;-63
2024/04/16 07:15:02;;;;;;;;;;;8.50;73.60;;;;;;5439902;26;19943;-64
2024/04/16 07:17:30;;;;;;;;;;;8.60;73.70;;;;;;5443073;26;20001;-63
2024/04/16 07:19:59;;;;;;;;;;;8.70;73.40;;;;;;5443558;26;19944;-64
2024/04/16 07:22:25;;;;;;;;;;;8.70;73.30;;;;;;5439956;26;19928;-64
2024/04/16 07:24:54;;;;;;;;;;;8.70;73.10;;;;;;5440999;26;19929;-64
2024/04/16 07:27:21;;;;;;;;;;;8.90;73.00;;;;;;5444712;26;20438;-64
2024/04/16 07:29:52;;;;;;;;;;;8.90;72.90;;;;;;5443813;26;19928;-64
2024/04/16 07:32:18;;;;;;;;;;;8.90;72.60;;;;;;5444944;26;19939;-62
2024/04/16 07:34:47;;;;;;;;;;;8.90;72.40;;;;;;5443992;26;19929;-63
2024/04/16 07:37:13;;;;;;;;;;;8.90;72.40;;;;;;5439559;26;22523;-61
2024/04/16 07:39:42;;;;;;;;;;;8.80;72.70;;;;;;5440254;26;19928;-62
2024/04/16 07:42:08;;;;;;;;;;;8.80;73.10;;;;;;5446851;26;19932;-61
2024/04/16 07:44:36;;;;;;;;;;;8.70;73.50;;;;;;5444061;26;19940;-61
2024/04/16 07:47:06;;;;;;;;;;;8.70;74.10;;;;;;5443201;26;19928;-61
2024/04/16 07:49:35;;;;;;;;;;;8.70;74.30;;;;;;5442326;26;20387;-62
2024/04/16 07:52:01;;;;;;;;;;;8.60;74.20;;;;;;5447230;26;19947;-62
2024/04/16 07:54:39;;;;;;;;;;;8.70;74.10;;;;;;5428882;26;19940;-62
2024/04/16 07:57:05;;;;;;;;;;;8.80;74.20;;;;;;5446830;26;19994;-62
2024/04/16 07:59:34;;;;;;;;;;;8.70;74.10;;;;;;5445484;26;20538;-62
2024/04/16 08:02:00;;;;;;;;;;;8.80;74.20;;;;;;5446843;26;19935;-61
2024/04/16 08:04:31;;;;;;;;;;;8.80;74.10;;;;;;5438320;26;19929;-61
2024/04/16 08:06:57;;;;;;;;;;;8.90;73.60;;;;;;5444379;26;19940;-62
2024/04/16 08:09:26;;;;;;;;;;;8.90;73.50;;;;;;5438983;26;19961;-60
2024/04/16 08:11:52;;;;;;;;;;;9.00;73.30;;;;;;5439557;26;19935;-61
2024/04/16 08:14:22;;;;;;;;;;;9.10;73.10;;;;;;5459976;26;20004;-62
2024/04/16 08:16:48;;;;;;;;;;;9.10;73.10;;;;;;5460456;26;19928;-62
2024/04/16 08:19:18;;;;;;;;;;;9.10;72.90;;;;;;5463649;26;19935;-63
2024/04/16 08:21:47;;;;;;;;;;;9.20;72.80;;;;;;5452535;26;20021;-61
2024/04/16 08:24:16;;;;;;;;;;;9.20;72.80;;;;;;5455302;26;19935;-62
2024/04/16 08:26:42;;;;;;;;;;;9.20;72.60;;;;;;5463261;26;19962;-62
2024/04/16 08:29:11;;;;;;;;;;;9.10;72.40;;;;;;5458248;26;19929;-62
2024/04/16 08:32:02;;;;;;;;;;;9.10;72.40;;;;;;5459004;26;19952;-60
2024/04/16 08:34:34;;;;;;;;;;;9.10;72.10;;;;;;5395086;26;19934;-62
2024/04/16 08:37:03;;;;;;;;;;;9.20;72.00;;;;;;5460456;26;19935;-61
2024/04/16 08:39:32;;;;;;;;;;;9.40;71.70;;;;;;5451669;26;19939;-60
2024/04/16 08:41:59;;;;;;;;;;;9.60;71.40;;;;;;5459631;26;20457;-62
2024/04/16 08:44:28;;;;;;;;;;;9.70;71.00;;;;;;5454941;26;20049;-60
2024/04/16 08:46:56;;;;;;;;;;;9.90;70.70;;;;;;5454747;26;19943;-62
2024/04/16 08:49:28;;;;;;;;;;;9.80;70.70;;;;;;5449135;26;19932;-60
2024/04/16 08:51:55;;;;;;;;;;;9.80;70.70;;;;;;5451894;26;19935;-62
2024/04/16 08:54:27;;;;;;;;;;;9.70;70.60;;;;;;5458212;26;19997;-62
2024/04/16 08:56:53;;;;;;;;;;;9.70;70.50;;;;;;5460886;26;20031;-62
2024/04/16 08:59:22;;;;;;;;;;;9.70;70.50;;;;;;5461420;26;19975;-62
2024/04/16 09:01:48;;;;;;;;;;;9.70;70.60;;;;;;5461980;26;19952;-62
2024/04/16 09:04:18;;;;;;;;;;;9.70;70.70;;;;;;5455852;26;20279;-61
2024/04/16 09:06:44;;;;;;;;;;;9.60;70.70;;;;;;5454498;26;19928;-62
2024/04/16 09:09:13;;;;;;;;;;;9.60;70.90;;;;;;5459746;26;19940;-62
2024/04/16 09:11:43;;;;;;;;;;;9.70;71.30;;;;;;5452937;26;19932;-62
2024/04/16 09:14:12;;;;;;;;;;;9.70;71.50;;;;;;5458228;26;20359;-62
2024/04/16 09:16:38;;;;;;;;;;;9.70;71.80;;;;;;5461836;26;19932;-62
2024/04/16 09:19:08;;;;;;;;;;;9.80;71.70;;;;;;5461720;26;19940;-62
2024/04/16 09:21:34;;;;;;;;;;;9.80;71.70;;;;;;5459068;26;19963;-61
2024/04/16 09:24:05;;;;;;;;;;;9.70;71.80;;;;;;5460342;26;19928;-62
2024/04/16 09:26:33;;;;;;;;;;;9.70;72.20;;;;;;5459805;26;19939;-62
2024/04/16 09:29:04;;;;;;;;;;;9.70;72.50;;;;;;5461794;26;19997;-62
2024/04/16 09:31:31;;;;;;;;;;;9.60;72.70;;;;;;5458300;26;20723;-61
2024/04/16 09:34:06;;;;;;;;;;;9.60;73.10;;;;;;5460031;26;19932;-62
2024/04/16 09:36:32;;;;;;;;;;;9.50;73.70;;;;;;5462214;26;20557;-62
2024/04/16 09:39:03;;;;;;;;;;;9.40;74.00;;;;;;5456240;26;19928;-61
2024/04/16 09:41:30;;;;;;;;;;;9.40;74.20;;;;;;5460607;26;19936;-62
2024/04/16 09:44:00;;;;;;;;;;;9.30;74.80;;;;;;5456650;26;19928;-62
2024/04/16 09:46:29;;;;;;;;;;;9.20;75.30;;;;;;5438564;26;20000;-62
2024/04/16 09:48:59;;;;;;;;;;;9.20;75.70;;;;;;5451106;26;19929;-62
2024/04/16 09:51:26;;;;;;;;;;;9.20;76.20;;;;;;5451646;26;20271;-71
2024/04/16 09:53:55;;;;;;;;;;;9.10;76.90;;;;;;5453803;26;20353;-70
2024/04/16 09:56:24;;;;;;;;;;;9.10;77.10;;;;;;5458391;26;19935;-71
2024/04/16 09:58:54;;;;;;;;;;;9.00;77.50;;;;;;5458959;26;19936;-71
2024/04/16 10:01:20;;;;;;;;;;;9.00;77.30;;;;;;5446590;26;20012;-71
2024/04/16 10:03:53;;;;;;;;;;;9.00;77.60;;;;;;5457836;26;19977;-70
2024/04/16 10:06:20;;;;;;;;;;;8.90;77.50;;;;;;5445000;26;20366;-70
2024/04/16 10:08:49;;;;;;;;;;;8.90;77.30;;;;;;5453922;26;19982;-70
2024/04/16 10:11:15;;;;;;;;;;;8.90;77.30;;;;;;5449925;26;19940;-70
2024/04/16 10:13:44;;;;;;;;;;;8.90;77.50;;;;;;5454894;26;19944;-71
2024/04/16 10:16:11;;;;;;;;;;;8.90;77.80;;;;;;5447880;26;20474;-70
2024/04/16 10:18:40;;;;;;;;;;;9.00;77.70;;;;;;5453455;26;19940;-71
2024/04/16 10:21:10;;;;;;;;;;;8.90;77.90;;;;;;5456518;26;19928;-70
2024/04/16 10:23:40;;;;;;;;;;;8.90;78.20;;;;;;5454493;26;19936;-70
2024/04/16 10:26:06;;;;;;;;;;;9.00;77.90;;;;;;5458402;26;20251;-71
2024/04/16 10:28:35;;;;;;;;;;;8.90;77.70;;;;;;5453386;26;20935;-70
2024/04/16 10:31:02;;;;;;;;;;;8.90;77.70;;;;;;5453794;26;20815;-69
2024/04/16 10:33:35;;;;;;;;;;;8.90;77.90;;;;;;5460403;26;19936;-70
2024/04/16 10:36:03;;;;;;;;;;;8.90;78.30;;;;;;5456503;26;19943;-71
2024/04/16 10:38:35;;;;;;;;;;;8.90;78.30;;;;;;5457249;26;22083;-71
2024/04/16 10:41:01;;;;;;;;;;;8.80;78.50;;;;;;5441631;26;20267;-70
2024/04/16 10:43:30;;;;;;;;;;;8.80;78.80;;;;;;5460946;26;19941;-69
2024/04/16 10:45:57;;;;;;;;;;;8.90;78.70;;;;;;5455485;26;20271;-70
2024/04/16 10:48:25;;;;;;;;;;;8.90;79.00;;;;;;5456725;26;19936;-68
2024/04/16 10:50:52;;;;;;;;;;;8.90;78.80;;;;;;5455104;26;19939;-70
2024/04/16 10:53:21;;;;;;;;;;;8.90;79.20;;;;;;5459414;26;19932;-71
2024/04/16 10:55:50;;;;;;;;;;;8.90;79.40;;;;;;5453489;26;19997;-69
2024/04/16 10:58:20;;;;;;;;;;;8.90;79.60;;;;;;5457687;26;19960;-69
2024/04/16 11:00:46;;;;;;;;;;;9.00;79.70;;;;;;5457473;26;19928;-68
2024/04/16 11:03:15;;;;;;;;;;;9.00;79.30;;;;;;5464389;26;19997;-61
2024/04/16 11:05:41;;;;;;;;;;;9.10;79.70;;;;;;5462893;26;19929;-62
2024/04/16 11:08:10;;;;;;;;;;;9.10;79.80;;;;;;5461404;26;19935;-59
2024/04/16 11:10:36;;;;;;;;;;;9.10;79.90;;;;;;5463788;26;19935;-60
2024/04/16 11:13:07;;;;;;;;;;;9.10;80.10;;;;;;5462756;26;19933;-61
2024/04/16 11:15:34;;;;;;;;;;;9.10;80.30;;;;;;5463178;26;19936;-61
2024/04/16 11:18:03;;;;;;;;;;;9.10;80.30;;;;;;5459858;26;19938;-61
2024/04/16 11:20:29;;;;;;;;;;;9.10;80.60;;;;;;5458487;26;20374;-60
2024/04/16 11:22:58;;;;;;;;;;;9.10;80.70;;;;;;5460162;26;19997;-61
2024/04/16 11:25:29;;;;;;;;;;;9.20;80.70;;;;;;5466236;26;19928;-60
2024/04/16 11:28:12;;;;;;;;;;;9.10;80.80;;;;;;5418801;26;19937;-60
2024/04/16 11:30:41;;;;;;;;;;;9.20;81.00;;;;;;5426971;26;20434;-61
2024/04/16 11:33:10;;;;;;;;;;;9.20;81.20;;;;;;5429275;26;19965;-62
2024/04/16 11:35:36;;;;;;;;;;;9.20;81.40;;;;;;5425605;26;19937;-62
2024/04/16 11:38:05;;;;;;;;;;;9.20;81.60;;;;;;5450458;26;19935;-61
2024/04/16 11:40:36;;;;;;;;;;;9.20;81.40;;;;;;5427131;26;19928;-61
2024/04/16 11:43:06;;;;;;;;;;;9.20;81.70;;;;;;5430172;26;20959;-61
2024/04/16 11:45:35;;;;;;;;;;;9.20;81.90;;;;;;5420076;26;19936;-62
2024/04/16 11:48:04;;;;;;;;;;;9.20;82.20;;;;;;5428593;26;19929;-60
2024/04/16 11:50:30;;;;;;;;;;;9.20;82.30;;;;;;5428200;26;19928;-62
2024/04/16 11:52:59;;;;;;;;;;;9.10;82.40;;;;;;5419514;26;20002;-61
2024/04/16 11:55:25;;;;;;;;;;;9.10;82.20;;;;;;5409561;26;20376;-60
2024/04/16 11:57:54;;;;;;;;;;;9.20;82.30;;;;;;5427930;26;19929;-62
2024/04/16 12:00:20;;;;;;;;;;;9.10;82.40;;;;;;5414425;26;20350;-60
2024/04/16 12:02:51;;;;;;;;;;;9.10;82.30;;;;;;5423011;26;20399;-61
2024/04/16 12:08:56;;;;;;;;;;;9.20;82.70;;;;;;5409904;26;19944;-61
2024/04/16 12:11:22;;;;;;;;;;;9.20;82.70;;;;;;5424344;26;19936;-70
2024/04/16 12:13:51;;;;;;;;;;;9.20;82.60;;;;;;5422379;26;20018;-71
2024/04/16 12:16:17;;;;;;;;;;;9.40;82.70;;;;;;5424874;26;20289;-68
2024/04/16 12:18:49;;;;;;;;;;;9.40;82.70;;;;;;5442269;26;19999;-70
2024/04/16 12:21:15;;;;;;;;;;;9.40;82.60;;;;;;5461483;26;19939;-69
2024/04/16 12:23:45;;;;;;;;;;;9.30;82.80;;;;;;5468007;26;19935;-70
2024/04/16 12:26:11;;;;;;;;;;;9.30;82.80;;;;;;5462482;26;20366;-69
2024/04/16 12:28:40;;;;;;;;;;;9.30;82.70;;;;;;5465595;26;19935;-69
2024/04/16 12:31:06;;;;;;;;;;;9.30;82.90;;;;;;5458661;26;19928;-70
2024/04/16 12:33:34;;;;;;;;;;;9.30;82.90;;;;;;5463641;26;19935;-70
2024/04/16 12:36:03;;;;;;;;;;;9.30;83.10;;;;;;5465903;26;19944;-70
2024/04/16 12:38:32;;;;;;;;;;;9.30;83.50;;;;;;5462717;26;19928;-71
2024/04/16 12:40:59;;;;;;;;;;;9.30;83.50;;;;;;5448637;26;19936;-69
2024/04/16 12:43:28;;;;;;;;;;;9.30;83.70;;;;;;5447082;26;20363;-69
2024/04/16 12:45:57;;;;;;;;;;;9.20;83.80;;;;;;5462708;26;19928;-70
2024/04/16 12:48:26;;;;;;;;;;;9.20;83.70;;;;;;5462832;26;19940;-70
2024/04/16 12:50:53;;;;;;;;;;;9.30;84.00;;;;;;5459923;26;20374;-68
2024/04/16 12:53:24;;;;;;;;;;;9.20;84.10;;;;;;5452909;26;19996;-70
2024/04/16 12:55:50;;;;;;;;;;;9.30;84.10;;;;;;5456850;26;20375;-70
2024/04/16 12:58:19;;;;;;;;;;;9.30;84.30;;;;;;5457585;26;19997;-69
2024/04/16 13:00:45;;;;;;;;;;;9.30;84.40;;;;;;5460926;26;19951;-70
2024/04/16 13:03:14;;;;;;;;;;;9.40;84.10;;;;;;5462189;26;19928;-70
2024/04/16 13:05:40;;;;;;;;;;;9.40;83.90;;;;;;5459985;26;20371;-70
2024/04/16 13:08:09;;;;;;;;;;;9.50;84.10;;;;;;5459272;26;19984;-69
2024/04/16 13:10:38;;;;;;;;;;;9.50;83.80;;;;;;5453919;26;19935;-70
2024/04/16 13:13:06;;;;;;;;;;;9.50;83.90;;;;;;5434473;26;19936;-70
2024/04/16 13:15:34;;;;;;;;;;;9.50;83.80;;;;;;5443746;26;20175;-70
2024/04/16 13:18:04;;;;;;;;;;;9.50;83.90;;;;;;5455350;26;19935;-70
2024/04/16 13:20:30;;;;;;;;;;;9.40;83.80;;;;;;5461118;26;19928;-70
2024/04/16 13:22:58;;;;;;;;;;;9.40;84.10;;;;;;5451314;26;19928;-63
2024/04/16 13:25:24;;;;;;;;;;;9.40;83.90;;;;;;5457146;26;20371;-64
2024/04/16 13:27:56;;;;;;;;;;;9.40;84.20;;;;;;5456992;26;20355;-65
2024/04/16 13:30:22;;;;;;;;;;;9.40;84.30;;;;;;5461252;26;19928;-64
2024/04/16 13:32:55;;;;;;;;;;;9.40;84.30;;;;;;5455071;26;19934;-65
2024/04/16 13:35:40;;;;;;;;;;;9.40;84.10;;;;;;5457696;26;19928;-64
2024/04/16 13:38:09;;;;;;;;;;;9.40;84.10;;;;;;5455426;26;20745;-64
2024/04/16 13:40:35;;;;;;;;;;;9.40;84.10;;;;;;5457669;26;19968;-63
2024/04/16 13:43:06;;;;;;;;;;;9.40;84.00;;;;;;5455766;26;20356;-64
2024/04/16 13:45:32;;;;;;;;;;;9.40;84.00;;;;;;5454985;26;19995;-64
2024/04/16 13:48:01;;;;;;;;;;;9.30;83.90;;;;;;5451949;26;19927;-65
2024/04/16 13:50:27;;;;;;;;;;;9.40;83.80;;;;;;5448678;26;19996;-65
2024/04/16 13:52:56;;;;;;;;;;;9.40;83.50;;;;;;5429807;26;19944;-64
2024/04/16 13:55:22;;;;;;;;;;;9.40;83.20;;;;;;5441934;26;19929;-63
2024/04/16 13:57:51;;;;;;;;;;;9.40;83.20;;;;;;5456761;26;19939;-65
2024/04/16 14:00:19;;;;;;;;;;;9.40;82.90;;;;;;5434814;26;19936;-64
2024/04/16 14:02:48;;;;;;;;;;;9.40;82.70;;;;;;5432020;26;19941;-64
2024/04/16 14:05:14;;;;;;;;;;;9.40;82.60;;;;;;5434328;26;20399;-64
2024/04/16 14:07:43;;;;;;;;;;;9.30;82.50;;;;;;5437482;26;19929;-64
2024/04/16 14:10:09;;;;;;;;;;;9.30;82.30;;;;;;5446151;26;19943;-64
2024/04/16 14:12:37;;;;;;;;;;;9.30;81.90;;;;;;5440038;26;20251;-64
2024/04/16 14:15:09;;;;;;;;;;;9.30;81.60;;;;;;5441243;26;19961;-63
2024/04/16 14:17:39;;;;;;;;;;;9.20;81.60;;;;;;5439022;26;19941;-65
2024/04/16 14:20:08;;;;;;;;;;;9.30;81.50;;;;;;5448334;26;19928;-64
2024/04/16 14:22:34;;;;;;;;;;;9.30;81.40;;;;;;5442625;26;20540;-65
2024/04/16 14:25:03;;;;;;;;;;;9.30;81.60;;;;;;5439549;26;19929;-64
2024/04/16 14:27:29;;;;;;;;;;;9.50;81.80;;;;;;5459494;26;20499;-65
2024/04/16 14:29:58;;;;;;;;;;;9.50;81.20;;;;;;5459964;26;20098;-64
2024/04/16 14:32:24;;;;;;;;;;;9.50;81.00;;;;;;5455994;26;20323;-73
2024/04/16 14:34:55;;;;;;;;;;;9.60;81.00;;;;;;5446952;26;20351;-75
2024/04/16 14:37:21;;;;;;;;;;;9.60;81.00;;;;;;5453729;26;19943;-72
2024/04/16 14:39:50;;;;;;;;;;;9.70;80.70;;;;;;5451898;26;19939;-72
2024/04/16 14:42:16;;;;;;;;;;;9.70;80.60;;;;;;5462338;26;19928;-72
2024/04/16 14:44:45;;;;;;;;;;;9.90;80.50;;;;;;5463655;26;19932;-71
2024/04/16 14:47:11;;;;;;;;;;;10.00;80.60;;;;;;5454620;26;20066;-72
2024/04/16 14:49:39;;;;;;;;;;;10.10;80.70;;;;;;5456866;26;20263;-73
2024/04/16 14:52:09;;;;;;;;;;;10.20;80.80;;;;;;5454299;26;19936;-72